createdAt,value
2018-05-03T00:02:26.564Z,9.50
2018-05-03T00:04:54.023Z,9.50
2018-05-03T00:07:21.452Z,9.50
2018-05-03T00:09:49.077Z,9.50
2018-05-03T00:12:17.275Z,9.40
2018-05-03T00:14:44.730Z,9.40
2018-05-03T00:17:12.222Z,9.40
2018-05-03T00:19:39.669Z,9.40
2018-05-03T00:22:07.109Z,9.30
2018-05-03T00:24:34.576Z,9.30
2018-05-03T00:27:02.126Z,9.30
2018-05-03T00:29:29.569Z,9.30
2018-05-03T00:31:57.041Z,9.30
2018-05-03T00:34:24.477Z,9.20
2018-05-03T00:36:52.008Z,9.20
2018-05-03T00:39:19.460Z,9.20
2018-05-03T00:41:46.929Z,9.20
2018-05-03T00:44:15.167Z,9.10
2018-05-03T00:46:42.650Z,9.10
2018-05-03T00:49:10.088Z,9.00
2018-05-03T00:51:37.539Z,9.00
2018-05-03T00:54:05.078Z,8.90
2018-05-03T00:56:32.510Z,8.90
2018-05-03T00:59:00.020Z,8.90
2018-05-03T01:01:27.489Z,8.90
2018-05-03T01:03:54.956Z,8.90
2018-05-03T01:06:22.394Z,8.90
2018-05-03T01:08:49.841Z,8.80
2018-05-03T01:11:18.132Z,8.80
2018-05-03T01:13:45.596Z,8.80
2018-05-03T01:16:13.049Z,8.80
2018-05-03T01:18:40.523Z,8.80
2018-05-03T01:21:07.971Z,8.70
2018-05-03T01:23:35.400Z,8.70
2018-05-03T01:26:02.946Z,8.70
2018-05-03T01:28:30.378Z,8.70
2018-05-03T01:30:58.609Z,8.70
2018-05-03T01:33:26.080Z,8.70
2018-05-03T01:36:05.459Z,8.70
2018-05-03T01:38:32.942Z,8.70
2018-05-03T01:41:00.393Z,8.70
2018-05-03T01:43:43.927Z,8.70
2018-05-03T01:46:12.634Z,8.70
2018-05-03T01:48:40.070Z,8.70
2018-05-03T01:51:07.535Z,8.60
2018-05-03T01:53:35.753Z,8.60
2018-05-03T01:56:03.186Z,8.60
2018-05-03T01:58:45.645Z,8.60
2018-05-03T02:01:13.088Z,8.60
2018-05-03T02:03:41.304Z,8.60
2018-05-03T02:06:09.092Z,8.60
2018-05-03T02:08:36.544Z,8.60
2018-05-03T02:11:04.003Z,8.60
2018-05-03T02:13:31.496Z,8.60
2018-05-03T02:15:58.999Z,8.60
2018-05-03T02:18:26.437Z,8.60
2018-05-03T02:20:53.874Z,8.60
2018-05-03T02:23:22.091Z,8.60
2018-05-03T02:25:49.539Z,8.60
2018-05-03T02:28:17.037Z,8.60
2018-05-03T02:30:44.486Z,8.60
2018-05-03T02:33:11.952Z,8.60
2018-05-03T02:35:39.390Z,8.60
2018-05-03T02:38:06.852Z,8.60
2018-05-03T02:40:34.304Z,8.60
2018-05-03T02:43:01.925Z,8.60
2018-05-03T02:45:29.367Z,8.60
2018-05-03T02:47:57.596Z,8.70
2018-05-03T02:50:25.037Z,8.60
2018-05-03T02:52:52.517Z,8.70
2018-05-03T02:55:20.083Z,8.70
2018-05-03T02:58:18.383Z,8.70
2018-05-03T03:01:03.478Z,8.70
2018-05-03T03:03:49.442Z,8.70
2018-05-03T03:06:34.614Z,8.70
2018-05-03T03:09:19.719Z,8.70
2018-05-03T03:12:17.751Z,8.70
2018-05-03T03:15:03.120Z,8.70
2018-05-03T03:17:48.172Z,8.70
2018-05-03T03:20:54.549Z,8.70
2018-05-03T03:23:39.615Z,8.70
2018-05-03T03:26:24.773Z,8.70
2018-05-03T03:29:09.704Z,8.70
2018-05-03T03:31:55.715Z,8.80
2018-05-03T03:34:26.612Z,8.70
2018-05-03T03:37:16.716Z,8.80
2018-05-03T03:40:01.759Z,8.80
2018-05-03T03:45:21.662Z,8.80
2018-05-03T03:47:49.213Z,8.80
2018-05-03T03:50:19.239Z,8.90
2018-05-03T03:52:46.682Z,8.90
2018-05-03T03:55:14.123Z,8.90
2018-05-03T03:57:41.604Z,9.00
2018-05-03T04:00:09.071Z,9.00
2018-05-03T04:02:36.534Z,9.00
2018-05-03T04:05:04.085Z,9.00
2018-05-03T04:07:31.546Z,9.10
2018-05-03T04:09:59.085Z,9.20
2018-05-03T04:12:26.590Z,9.20
2018-05-03T04:14:54.828Z,9.30
2018-05-03T04:17:22.309Z,9.30
2018-05-03T04:20:10.680Z,9.30
2018-05-03T04:22:50.673Z,9.30
2018-05-03T04:25:30.113Z,9.30
2018-05-03T04:27:57.569Z,9.40
2018-05-03T04:30:25.041Z,9.40
2018-05-03T04:32:52.531Z,9.40
2018-05-03T04:35:20.209Z,9.50
2018-05-03T04:37:48.427Z,9.50
2018-05-03T04:40:15.871Z,9.50
2018-05-03T04:42:43.371Z,9.60
2018-05-03T04:45:10.824Z,9.60
2018-05-03T04:47:38.540Z,9.60
2018-05-03T04:50:06.168Z,9.60
2018-05-03T04:52:34.390Z,9.70
2018-05-03T04:55:01.849Z,9.70
2018-05-03T04:57:29.332Z,9.70
2018-05-03T04:59:56.813Z,9.70
2018-05-03T05:02:24.304Z,9.80
2018-05-03T05:04:51.816Z,9.80
2018-05-03T05:07:19.337Z,9.90
2018-05-03T05:09:46.789Z,9.90
2018-05-03T05:12:14.296Z,9.90
2018-05-03T05:14:41.764Z,10.00
2018-05-03T05:17:10.464Z,10.00
2018-05-03T05:19:52.400Z,10.20
2018-05-03T05:22:21.329Z,10.10
2018-05-03T05:24:48.788Z,10.20
2018-05-03T05:27:16.243Z,10.20
2018-05-03T05:29:43.734Z,10.20
2018-05-03T05:32:11.963Z,10.30
2018-05-03T05:34:39.495Z,10.30
2018-05-03T05:37:06.937Z,10.40
2018-05-03T05:39:34.422Z,10.50
2018-05-03T05:42:02.836Z,10.50
2018-05-03T05:44:30.291Z,10.50
2018-05-03T05:46:57.750Z,10.50
2018-05-03T05:49:26.411Z,10.60
2018-05-03T05:51:53.876Z,10.60
2018-05-03T05:54:21.364Z,10.50
2018-05-03T05:56:48.836Z,10.40
2018-05-03T05:59:16.272Z,10.40
2018-05-03T06:01:43.820Z,10.40
2018-05-03T06:04:11.308Z,10.40
2018-05-03T06:06:39.540Z,10.40
2018-05-03T06:09:07.088Z,10.40
2018-05-03T06:11:35.298Z,10.60
2018-05-03T06:14:02.970Z,10.60
2018-05-03T06:16:30.412Z,10.60
2018-05-03T06:18:57.912Z,10.70
2018-05-03T06:21:25.382Z,10.80
2018-05-03T06:27:02.845Z,10.90
2018-05-03T06:29:30.381Z,10.90
2018-05-03T06:31:57.842Z,11.00
2018-05-03T06:34:25.339Z,11.00
2018-05-03T06:36:53.789Z,11.30
2018-05-03T06:39:21.303Z,11.30
2018-05-03T06:41:48.845Z,11.30
2018-05-03T06:44:16.439Z,11.40
2018-05-03T06:46:44.168Z,11.40
2018-05-03T06:49:12.414Z,11.50
2018-05-03T06:51:39.942Z,11.50
2018-05-03T06:54:07.392Z,11.60
2018-05-03T06:56:34.831Z,11.70
2018-05-03T06:59:02.380Z,11.70
2018-05-03T07:01:30.597Z,11.70
2018-05-03T07:03:58.124Z,11.70
2018-05-03T07:06:25.628Z,11.80
2018-05-03T07:08:53.234Z,11.90
2018-05-03T07:11:21.813Z,12.00
2018-05-03T07:13:50.373Z,12.20
2018-05-03T07:16:18.466Z,12.10
2018-05-03T07:18:46.073Z,12.30
2018-05-03T07:21:13.633Z,12.30
2018-05-03T07:23:46.115Z,12.40
2018-05-03T07:26:13.821Z,12.50
2018-05-03T07:28:41.329Z,12.60
2018-05-03T07:31:08.853Z,12.60
2018-05-03T07:33:36.408Z,12.70
2018-05-03T07:36:05.357Z,12.80
2018-05-03T07:38:33.378Z,12.80
2018-05-03T07:41:03.153Z,12.80
2018-05-03T07:43:30.832Z,12.80
2018-05-03T07:45:59.056Z,12.80
2018-05-03T07:48:32.074Z,12.80
2018-05-03T07:50:59.470Z,12.90
2018-05-03T07:53:27.709Z,13.00
2018-05-03T07:55:55.236Z,13.00
2018-05-03T07:58:23.682Z,13.10
2018-05-03T08:00:51.933Z,13.10
2018-05-03T08:03:19.431Z,13.10
2018-05-03T08:05:46.882Z,13.20
2018-05-03T08:08:15.139Z,13.50
2018-05-03T08:10:42.589Z,13.50
2018-05-03T08:13:10.134Z,13.50
2018-05-03T08:15:37.595Z,13.50
2018-05-03T08:18:21.172Z,13.50
2018-05-03T08:20:48.632Z,13.50
2018-05-03T08:23:16.080Z,13.50
2018-05-03T08:25:43.782Z,13.50
2018-05-03T08:28:11.252Z,13.60
2018-05-03T08:30:38.696Z,13.70
2018-05-03T08:33:06.372Z,13.70
2018-05-03T08:35:34.059Z,13.80
2018-05-03T08:38:01.524Z,13.90
2018-05-03T08:40:29.016Z,13.90
2018-05-03T08:42:56.483Z,13.90
2018-05-03T08:45:23.987Z,13.80
2018-05-03T08:47:53.491Z,13.70
2018-05-03T08:50:21.019Z,13.70
2018-05-03T08:52:48.510Z,13.70
2018-05-03T08:55:16.006Z,13.70
2018-05-03T08:57:43.456Z,13.90
2018-05-03T09:00:11.680Z,14.30
2018-05-03T09:02:41.735Z,14.30
2018-05-03T09:05:09.263Z,14.50
2018-05-03T09:07:36.747Z,14.80
2018-05-03T09:10:04.201Z,15.00
2018-05-03T09:12:31.642Z,15.20
2018-05-03T09:15:04.074Z,15.20
2018-05-03T09:17:31.738Z,15.20
2018-05-03T09:19:59.308Z,15.20
2018-05-03T09:22:27.246Z,15.20
2018-05-03T09:24:54.778Z,15.10
2018-05-03T09:27:22.278Z,15.20
2018-05-03T09:29:49.887Z,15.30
2018-05-03T09:32:17.357Z,15.40
2018-05-03T09:37:54.251Z,15.80
2018-05-03T09:43:14.910Z,15.90
2018-05-03T09:45:43.737Z,15.80
2018-05-03T09:48:11.216Z,15.80
2018-05-03T09:50:38.774Z,15.80
2018-05-03T09:53:06.218Z,15.90
2018-05-03T09:58:26.009Z,15.70
2018-05-03T10:00:55.959Z,15.70
2018-05-03T10:03:23.409Z,15.50
2018-05-03T10:05:50.873Z,15.30
2018-05-03T10:08:18.369Z,15.20
2018-05-03T10:10:45.865Z,15.20
2018-05-03T10:13:13.518Z,15.40
2018-05-03T10:15:40.932Z,15.40
2018-05-03T10:18:09.167Z,15.70
2018-05-03T10:20:37.962Z,15.70
2018-05-03T10:23:05.452Z,15.80
2018-05-03T10:25:33.685Z,15.90
2018-05-03T10:28:01.205Z,15.90
2018-05-03T10:30:28.652Z,16.00
2018-05-03T10:32:56.171Z,16.00
2018-05-03T10:35:23.753Z,15.90
2018-05-03T10:38:04.834Z,15.90
2018-05-03T10:40:33.049Z,16.00
2018-05-03T10:43:00.559Z,15.90
2018-05-03T10:45:28.023Z,16.10
2018-05-03T10:47:56.287Z,16.70
2018-05-03T10:50:25.156Z,16.70
2018-05-03T10:52:52.605Z,16.80
2018-05-03T10:55:20.080Z,16.80
2018-05-03T10:57:47.842Z,16.70
2018-05-03T11:00:15.328Z,16.70
2018-05-03T11:02:43.559Z,16.80
2018-05-03T11:05:11.071Z,16.80
2018-05-03T11:07:39.433Z,17.00
2018-05-03T11:10:06.898Z,17.00
2018-05-03T11:12:35.438Z,17.00
2018-05-03T11:15:02.897Z,16.90
2018-05-03T11:17:30.361Z,17.00
2018-05-03T11:19:57.894Z,17.00
2018-05-03T11:22:25.356Z,17.00
2018-05-03T11:24:52.830Z,17.20
2018-05-03T11:27:20.485Z,17.30
2018-05-03T11:29:47.942Z,17.20
2018-05-03T11:32:15.409Z,17.20
2018-05-03T11:34:42.947Z,17.10
2018-05-03T11:37:10.421Z,17.10
2018-05-03T11:39:37.871Z,17.20
2018-05-03T11:42:05.384Z,17.20
2018-05-03T11:44:33.611Z,17.20
2018-05-03T11:47:02.517Z,17.20
2018-05-03T11:49:29.983Z,17.20
2018-05-03T11:51:58.409Z,17.30
2018-05-03T11:54:25.900Z,17.30
2018-05-03T11:56:53.435Z,17.30
2018-05-03T11:59:20.985Z,17.20
2018-05-03T12:01:48.384Z,17.10
2018-05-03T12:04:15.839Z,17.10
2018-05-03T12:06:43.441Z,17.00
2018-05-03T12:09:10.905Z,16.90
2018-05-03T12:11:39.194Z,17.00
2018-05-03T12:14:06.656Z,17.00
2018-05-03T12:16:34.117Z,17.10
2018-05-03T12:19:07.664Z,17.30
2018-05-03T12:21:35.137Z,17.40
2018-05-03T12:24:02.706Z,17.40
2018-05-03T12:26:30.925Z,17.50
2018-05-03T12:28:58.398Z,17.50
2018-05-03T12:31:25.908Z,17.60
2018-05-03T12:33:53.433Z,17.60
2018-05-03T12:36:20.887Z,17.60
2018-05-03T12:38:48.427Z,17.50
2018-05-03T12:41:15.912Z,17.50
2018-05-03T12:43:43.449Z,17.50
2018-05-03T12:46:11.283Z,17.60
2018-05-03T12:48:38.805Z,17.60
2018-05-03T12:51:06.265Z,17.60
2018-05-03T12:53:33.896Z,17.60
2018-05-03T12:56:01.353Z,17.70
2018-05-03T12:58:28.804Z,17.80
2018-05-03T13:00:56.603Z,17.80
2018-05-03T13:03:24.067Z,17.80
2018-05-03T13:05:52.312Z,17.80
2018-05-03T13:08:19.806Z,17.80
2018-05-03T13:10:48.081Z,17.80
2018-05-03T13:13:16.309Z,17.80
2018-05-03T13:15:43.904Z,17.80
2018-05-03T13:18:11.344Z,17.80
2018-05-03T13:20:38.821Z,17.80
2018-05-03T13:25:59.912Z,17.80
2018-05-03T13:28:27.423Z,17.80
2018-05-03T13:30:55.670Z,17.80
2018-05-03T13:33:23.266Z,17.80
2018-05-03T13:35:51.535Z,18.00
2018-05-03T13:38:19.789Z,18.00
2018-05-03T13:40:47.357Z,18.00
2018-05-03T13:43:14.851Z,18.00
2018-05-03T13:45:42.277Z,18.00
2018-05-03T13:48:09.938Z,18.00
2018-05-03T13:50:37.391Z,18.00
2018-05-03T13:53:04.880Z,18.10
2018-05-03T13:55:32.508Z,18.20
2018-05-03T13:58:00.755Z,18.20
2018-05-03T14:00:28.211Z,18.20
2018-05-03T14:02:56.045Z,18.20
2018-05-03T14:05:23.541Z,18.10
2018-05-03T14:07:51.005Z,18.10
2018-05-03T14:10:18.545Z,18.10
2018-05-03T14:12:46.012Z,18.10
2018-05-03T14:15:13.519Z,18.20
2018-05-03T14:17:41.973Z,18.40
2018-05-03T14:20:09.435Z,18.40
2018-05-03T14:22:36.945Z,18.50
2018-05-03T14:25:04.426Z,18.70
2018-05-03T14:27:31.868Z,18.90
2018-05-03T14:29:59.403Z,19.20
2018-05-03T14:32:27.629Z,19.40
2018-05-03T14:34:55.069Z,19.40
2018-05-03T14:40:13.994Z,19.40
2018-05-03T14:42:41.491Z,19.40
2018-05-03T14:45:09.136Z,19.50
2018-05-03T14:47:37.358Z,19.40
2018-05-03T14:50:05.163Z,19.40
2018-05-03T14:52:32.606Z,19.50
2018-05-03T14:55:00.069Z,19.50
2018-05-03T14:57:27.579Z,19.40
2018-05-03T14:59:55.089Z,19.30
2018-05-03T15:02:22.536Z,19.20
2018-05-03T15:04:53.800Z,19.20
2018-05-03T15:07:21.314Z,19.10
2018-05-03T15:09:48.858Z,19.10
2018-05-03T15:12:16.326Z,19.20
2018-05-03T15:14:43.793Z,19.30
2018-05-03T15:19:44.152Z,19.40
2018-05-03T15:22:11.686Z,19.50
2018-05-03T15:24:39.161Z,19.60
2018-05-03T15:27:06.649Z,19.60
2018-05-03T15:29:34.173Z,19.50
2018-05-03T15:32:01.627Z,19.60
2018-05-03T15:34:29.100Z,19.60
2018-05-03T15:36:56.679Z,19.70
2018-05-03T15:39:24.158Z,19.70
2018-05-03T15:41:52.504Z,19.60
2018-05-03T15:44:19.948Z,19.60
2018-05-03T15:46:47.857Z,19.70
2018-05-03T15:49:16.157Z,19.70
2018-05-03T15:51:43.592Z,19.70
2018-05-03T15:54:12.044Z,19.90
2018-05-03T15:56:39.488Z,19.90
2018-05-03T15:59:10.968Z,19.90
2018-05-03T16:01:38.425Z,19.80
2018-05-03T16:04:06.055Z,19.70
2018-05-03T16:06:33.546Z,19.50
2018-05-03T16:09:01.004Z,19.20
2018-05-03T16:11:28.549Z,19.00
2018-05-03T16:13:56.102Z,18.90
2018-05-03T16:16:23.555Z,18.80
2018-05-03T16:18:51.096Z,18.60
2018-05-03T16:21:18.557Z,18.50
2018-05-03T16:23:46.021Z,18.30
2018-05-03T16:26:13.651Z,18.20
2018-05-03T16:28:41.122Z,18.00
2018-05-03T16:31:08.691Z,18.00
2018-05-03T16:33:36.271Z,17.90
2018-05-03T16:38:53.463Z,17.50
2018-05-03T16:41:20.970Z,17.40
2018-05-03T16:43:48.445Z,17.30
2018-05-03T16:46:17.373Z,17.10
2018-05-03T16:48:44.950Z,17.10
2018-05-03T16:51:12.489Z,17.00
2018-05-03T16:53:40.032Z,16.90
2018-05-03T16:56:08.301Z,16.90
2018-05-03T16:58:35.743Z,16.90
2018-05-03T17:01:03.204Z,16.90
2018-05-03T17:03:30.944Z,16.80
2018-05-03T17:05:58.448Z,16.80
2018-05-03T17:08:26.029Z,16.70
2018-05-03T17:10:53.508Z,16.60
2018-05-03T17:13:21.337Z,16.60
2018-05-03T17:15:49.556Z,16.50
2018-05-03T17:18:17.019Z,16.50
2018-05-03T17:20:44.612Z,16.40
2018-05-03T17:23:12.087Z,16.30
2018-05-03T17:25:40.345Z,16.30
2018-05-03T17:28:07.813Z,16.30
2018-05-03T17:30:35.264Z,16.20
2018-05-03T17:33:02.736Z,16.10
2018-05-03T17:35:30.950Z,16.00
2018-05-03T17:37:58.584Z,16.00
2018-05-03T17:40:26.823Z,15.90
2018-05-03T17:42:54.273Z,15.90
2018-05-03T17:45:21.893Z,15.80
2018-05-03T17:47:49.330Z,15.80
2018-05-03T17:50:19.531Z,15.60
2018-05-03T17:52:47.252Z,15.60
2018-05-03T17:55:14.687Z,15.60
2018-05-03T17:57:42.132Z,15.50
2018-05-03T18:00:10.414Z,15.40
2018-05-03T18:02:38.603Z,15.40
2018-05-03T18:05:06.069Z,15.30
2018-05-03T18:07:33.545Z,15.30
2018-05-03T18:10:01.121Z,15.30
2018-05-03T18:12:28.547Z,15.20
2018-05-03T18:14:55.996Z,15.20
2018-05-03T18:17:23.530Z,15.10
2018-05-03T18:19:51.005Z,15.00
2018-05-03T18:22:18.457Z,14.90
2018-05-03T18:24:45.966Z,14.80
2018-05-03T18:27:13.434Z,14.80
2018-05-03T18:29:50.148Z,14.70
2018-05-03T18:32:17.630Z,14.60
2018-05-03T18:34:45.111Z,14.60
2018-05-03T18:37:12.583Z,14.50
2018-05-03T18:39:40.061Z,14.50
2018-05-03T18:42:08.328Z,14.40
2018-05-03T18:44:35.788Z,14.40
2018-05-03T18:47:03.349Z,14.40
2018-05-03T18:49:30.910Z,14.30
2018-05-03T18:51:59.119Z,14.20
2018-05-03T18:54:27.342Z,14.10
2018-05-03T18:56:54.814Z,14.10
2018-05-03T18:59:22.317Z,14.10
2018-05-03T19:01:52.383Z,14.00
2018-05-03T19:04:19.860Z,13.90
2018-05-03T19:06:48.145Z,13.80
2018-05-03T19:09:16.363Z,13.70
2018-05-03T19:11:43.870Z,13.70
2018-05-03T19:14:11.352Z,13.60
2018-05-03T19:16:38.894Z,13.50
2018-05-03T19:19:08.872Z,13.50
2018-05-03T19:21:36.340Z,13.40
2018-05-03T19:24:03.801Z,13.30
2018-05-03T19:26:31.264Z,13.30
2018-05-03T19:28:58.760Z,13.10
2018-05-03T19:31:26.195Z,13.10
2018-05-03T19:33:54.435Z,12.90
2018-05-03T19:36:21.877Z,12.90
2018-05-03T19:38:49.362Z,12.90
2018-05-03T19:41:16.806Z,12.80
2018-05-03T19:46:36.124Z,12.70
2018-05-03T19:49:03.592Z,12.60
2018-05-03T19:51:31.809Z,12.40
2018-05-03T19:53:59.262Z,12.40
2018-05-03T19:56:26.722Z,12.30
2018-05-03T19:58:54.152Z,12.30
2018-05-03T20:01:21.698Z,12.20
2018-05-03T20:03:49.975Z,12.00
2018-05-03T20:06:17.736Z,12.00
2018-05-03T20:08:45.945Z,11.90
2018-05-03T20:11:13.398Z,11.90
2018-05-03T20:13:40.860Z,11.80
2018-05-03T20:16:08.453Z,11.80
2018-05-03T20:18:35.901Z,11.70
2018-05-03T20:21:03.358Z,11.70
2018-05-03T20:23:30.919Z,11.60
2018-05-03T20:25:58.376Z,11.50
2018-05-03T20:28:25.830Z,11.40
2018-05-03T20:30:53.361Z,11.40
2018-05-03T20:33:20.841Z,11.30
2018-05-03T20:35:48.280Z,11.30
2018-05-03T20:38:15.767Z,11.20
2018-05-03T20:40:43.219Z,11.10
2018-05-03T20:43:10.705Z,11.10
2018-05-03T20:45:38.173Z,11.00
2018-05-03T20:48:05.719Z,11.00
2018-05-03T20:50:33.171Z,10.90
2018-05-03T20:53:00.635Z,10.80
2018-05-03T20:55:28.086Z,10.80
2018-05-03T20:57:55.602Z,10.70
2018-05-03T21:00:23.052Z,10.60
2018-05-03T21:02:50.694Z,10.60
2018-05-03T21:05:18.123Z,10.50
2018-05-03T21:07:45.576Z,10.50
2018-05-03T21:10:13.444Z,10.40
2018-05-03T21:12:40.965Z,10.40
2018-05-03T21:15:08.336Z,10.30
2018-05-03T21:17:35.913Z,10.30
2018-05-03T21:20:03.381Z,10.20
2018-05-03T21:22:30.820Z,10.20
2018-05-03T21:25:08.185Z,10.20
2018-05-03T21:27:35.635Z,10.10
2018-05-03T21:30:03.883Z,10.00
2018-05-03T21:32:31.327Z,10.00
2018-05-03T21:34:58.774Z,9.90
2018-05-03T21:37:26.326Z,9.90
2018-05-03T21:39:53.805Z,9.80
2018-05-03T21:42:21.249Z,9.80
2018-05-03T21:44:48.730Z,9.70
2018-05-03T21:47:16.398Z,9.70
2018-05-03T21:49:43.836Z,9.60
2018-05-03T21:52:11.369Z,9.60
2018-05-03T21:54:38.883Z,9.50
2018-05-03T21:57:07.102Z,9.40
2018-05-03T21:59:34.556Z,9.40
2018-05-03T22:02:02.092Z,9.40
2018-05-03T22:04:29.577Z,9.30
2018-05-03T22:06:57.019Z,9.30
2018-05-03T22:09:24.464Z,9.20
2018-05-03T22:12:06.195Z,9.20
2018-05-03T22:14:33.655Z,9.20
2018-05-03T22:17:01.098Z,9.10
2018-05-03T22:19:28.567Z,9.10
2018-05-03T22:21:56.071Z,9.10
2018-05-03T22:24:24.277Z,8.90
2018-05-03T22:26:51.841Z,8.90
2018-05-03T22:29:19.303Z,8.90
2018-05-03T22:31:46.749Z,8.80
2018-05-03T22:34:14.216Z,8.70
2018-05-03T22:36:41.670Z,8.70
2018-05-03T22:39:09.101Z,8.60
2018-05-03T22:41:37.410Z,8.50
2018-05-03T22:44:04.860Z,8.50
2018-05-03T22:46:32.295Z,8.50
2018-05-03T22:49:06.048Z,8.50
2018-05-03T22:51:33.518Z,8.40
2018-05-03T22:54:00.948Z,8.30
2018-05-03T22:56:28.589Z,8.30
2018-05-03T22:58:56.037Z,8.20
2018-05-03T23:01:24.238Z,8.10
2018-05-03T23:03:51.723Z,8.10
2018-05-03T23:06:19.158Z,8.10
2018-05-03T23:08:49.671Z,8.00
2018-05-03T23:11:17.112Z,8.00
2018-05-03T23:13:44.567Z,7.90
2018-05-03T23:16:12.996Z,7.90
2018-05-03T23:18:40.434Z,7.90
2018-05-03T23:21:07.872Z,7.90
2018-05-03T23:23:35.349Z,7.80
2018-05-03T23:26:02.777Z,7.80
2018-05-03T23:28:30.235Z,7.80
2018-05-03T23:30:58.864Z,7.70
2018-05-03T23:33:26.305Z,7.70
2018-05-03T23:35:53.737Z,7.70
2018-05-03T23:38:21.201Z,7.60
2018-05-03T23:40:48.661Z,7.60
2018-05-03T23:43:16.108Z,7.50
2018-05-03T23:45:43.697Z,7.50
2018-05-03T23:48:11.135Z,7.40
2018-05-03T23:50:38.604Z,7.40
2018-05-03T23:53:06.060Z,7.40
2018-05-03T23:55:33.524Z,7.30
2018-05-03T23:58:00.956Z,7.30
